createdAt,value
2018-02-16T00:00:20.275Z,46.78
2018-02-16T00:01:23.565Z,43.45
2018-02-16T00:02:26.882Z,43.75
2018-02-16T00:03:29.402Z,43.25
2018-02-16T00:04:32.742Z,44.15
2018-02-16T00:05:35.261Z,40.25
2018-02-16T00:06:38.597Z,42.85
2018-02-16T00:07:41.121Z,44.40
2018-02-16T00:08:43.653Z,41.85
2018-02-16T00:09:46.213Z,40.90
2018-02-16T00:10:48.733Z,42.22
2018-02-16T00:11:51.254Z,44.13
2018-02-16T00:12:53.778Z,40.22
2018-02-16T00:13:56.303Z,44.35
2018-02-16T00:14:59.634Z,46.83
2018-02-16T00:16:02.192Z,38.95
2018-02-16T00:17:04.831Z,46.10
2018-02-16T00:18:08.121Z,44.70
2018-02-16T00:19:10.640Z,50.60
2018-02-16T00:20:13.203Z,50.40
2018-02-16T00:21:15.724Z,51.50
2018-02-16T00:22:18.286Z,46.25
2018-02-16T00:23:20.808Z,46.83
2018-02-16T00:24:23.322Z,49.90
2018-02-16T00:25:25.849Z,43.00
2018-02-16T00:26:28.405Z,53.50
2018-02-16T00:27:30.925Z,46.25
2018-02-16T00:28:33.449Z,50.35
2018-02-16T00:29:36.016Z,49.13
2018-02-16T00:30:38.528Z,46.70
2018-02-16T00:31:41.048Z,48.50
2018-02-16T00:32:43.583Z,52.92
2018-02-16T00:33:46.114Z,44.90
2018-02-16T00:34:48.673Z,45.38
2018-02-16T00:35:51.976Z,45.72
2018-02-16T00:36:54.537Z,49.20
2018-02-16T00:37:57.057Z,44.58
2018-02-16T00:38:59.723Z,48.10
2018-02-16T00:40:02.237Z,46.65
2018-02-16T00:41:04.788Z,42.85
2018-02-16T00:42:08.110Z,43.15
2018-02-16T00:43:10.628Z,42.60
2018-02-16T00:44:13.916Z,46.80
2018-02-16T00:45:17.207Z,44.40
2018-02-16T00:46:20.489Z,39.83
2018-02-16T00:47:23.917Z,42.67
2018-02-16T00:48:26.437Z,51.10
2018-02-16T00:49:29.733Z,52.90
2018-02-16T00:50:32.248Z,41.35
2018-02-16T00:51:34.763Z,39.65
2018-02-16T00:52:38.082Z,48.38
2018-02-16T00:53:40.631Z,40.60
2018-02-16T00:54:43.200Z,45.80
2018-02-16T00:55:45.713Z,42.92
2018-02-16T00:56:48.236Z,38.72
2018-02-16T00:57:50.756Z,41.33
2018-02-16T00:58:53.282Z,44.78
2018-02-16T00:59:56.612Z,44.33
2018-02-16T01:00:59.899Z,57.97
2018-02-16T01:02:03.180Z,50.80
2018-02-16T01:03:06.467Z,49.25
2018-02-16T01:04:09.753Z,47.03
2018-02-16T01:05:13.076Z,47.35
2018-02-16T01:06:15.597Z,41.55
2018-02-16T01:07:18.881Z,47.17
2018-02-16T01:08:22.170Z,48.87
2018-02-16T01:09:25.453Z,46.63
2018-02-16T01:10:28.766Z,51.78
2018-02-16T01:11:31.285Z,51.08
2018-02-16T01:12:33.817Z,52.80
2018-02-16T01:13:36.381Z,49.40
2018-02-16T01:14:38.939Z,50.90
2018-02-16T01:15:41.457Z,50.00
2018-02-16T01:16:44.761Z,54.97
2018-02-16T01:17:48.041Z,53.95
2018-02-16T01:18:51.331Z,53.33
2018-02-16T01:19:53.893Z,55.10
2018-02-16T01:20:57.186Z,57.33
2018-02-16T01:21:59.734Z,49.80
2018-02-16T01:23:03.013Z,48.45
2018-02-16T01:24:06.299Z,53.17
2018-02-16T01:25:09.615Z,50.15
2018-02-16T01:26:12.134Z,49.30
2018-02-16T01:27:14.662Z,49.05
2018-02-16T01:28:17.215Z,52.55
2018-02-16T01:29:19.769Z,53.13
2018-02-16T01:30:22.328Z,58.33
2018-02-16T01:31:25.617Z,55.58
2018-02-16T01:32:28.145Z,49.03
2018-02-16T01:33:30.657Z,49.78
2018-02-16T01:34:33.172Z,50.08
2018-02-16T01:35:35.717Z,47.80
2018-02-16T01:36:38.242Z,47.20
2018-02-16T01:37:41.533Z,49.85
2018-02-16T01:38:44.234Z,54.00
2018-02-16T01:39:46.749Z,47.58
2018-02-16T01:40:50.076Z,59.15
2018-02-16T01:41:52.587Z,56.83
2018-02-16T01:42:55.104Z,57.08
2018-02-16T01:43:57.626Z,57.58
2018-02-16T01:45:00.933Z,60.58
2018-02-16T01:46:04.231Z,58.60
2018-02-16T01:47:06.766Z,58.35
2018-02-16T01:48:10.052Z,59.80
2018-02-16T01:49:13.337Z,56.45
2018-02-16T01:50:16.660Z,52.95
2018-02-16T01:51:19.176Z,49.15
2018-02-16T01:52:22.465Z,48.90
2018-02-16T01:53:25.781Z,55.05
2018-02-16T01:54:28.305Z,52.20
2018-02-16T01:55:30.853Z,55.28
2018-02-16T01:56:33.370Z,52.17
2018-02-16T01:57:35.884Z,58.13
2018-02-16T01:58:38.403Z,63.78
2018-02-16T01:59:40.925Z,54.78
2018-02-16T02:00:43.472Z,50.33
2018-02-16T02:01:45.997Z,58.13
2018-02-16T02:02:48.565Z,56.97
2018-02-16T02:03:51.080Z,57.58
2018-02-16T02:04:53.605Z,51.25
2018-02-16T02:05:56.121Z,56.20
2018-02-16T02:06:58.641Z,48.95
2018-02-16T02:08:01.190Z,48.80
2018-02-16T02:09:03.757Z,57.85
2018-02-16T02:10:06.280Z,50.38
2018-02-16T02:11:08.829Z,50.65
2018-02-16T02:12:11.356Z,48.30
2018-02-16T02:13:13.882Z,57.08
2018-02-16T02:14:16.437Z,47.45
2018-02-16T02:15:18.953Z,48.67
2018-02-16T02:16:21.472Z,65.68
2018-02-16T02:17:24.013Z,59.40
2018-02-16T02:18:26.542Z,65.12
2018-02-16T02:19:29.855Z,56.45
2018-02-16T02:20:32.380Z,55.35
2018-02-16T02:21:35.693Z,60.92
2018-02-16T02:22:38.214Z,51.80
2018-02-16T02:23:40.742Z,57.28
2018-02-16T02:24:43.292Z,52.17
2018-02-16T02:25:45.818Z,55.70
2018-02-16T02:26:48.340Z,49.97
2018-02-16T02:27:50.889Z,55.12
2018-02-16T02:28:53.400Z,58.08
2018-02-16T02:29:55.916Z,67.18
2018-02-16T02:30:58.482Z,55.90
2018-02-16T02:32:01.004Z,57.08
2018-02-16T02:33:03.519Z,50.30
2018-02-16T02:34:06.046Z,45.35
2018-02-16T02:35:08.601Z,53.08
2018-02-16T02:36:11.121Z,53.83
2018-02-16T02:37:13.638Z,50.42
2018-02-16T02:38:16.166Z,54.08
2018-02-16T02:39:18.684Z,59.33
2018-02-16T02:40:22.013Z,63.42
2018-02-16T02:41:24.568Z,65.40
2018-02-16T02:42:27.093Z,66.00
2018-02-16T02:43:29.609Z,69.25
2018-02-16T02:44:32.140Z,66.40
2018-02-16T02:45:35.477Z,62.55
2018-02-16T02:46:37.994Z,71.62
2018-02-16T02:47:41.278Z,62.13
2018-02-16T02:48:44.561Z,57.95
2018-02-16T02:49:48.778Z,56.55
2018-02-16T02:50:51.331Z,57.40
2018-02-16T02:51:54.623Z,66.47
2018-02-16T02:52:57.916Z,61.30
2018-02-16T02:54:00.446Z,68.05
2018-02-16T02:55:02.967Z,72.03
2018-02-16T02:56:05.532Z,68.95
2018-02-16T02:57:08.056Z,66.78
2018-02-16T02:58:11.337Z,63.28
2018-02-16T02:59:13.857Z,58.13
2018-02-16T03:00:16.369Z,57.60
2018-02-16T03:01:19.704Z,62.38
2018-02-16T03:02:22.220Z,67.75
2018-02-16T03:03:25.512Z,63.45
2018-02-16T03:04:28.800Z,66.37
2018-02-16T03:05:32.091Z,57.85
2018-02-16T03:06:34.645Z,56.55
2018-02-16T03:07:37.934Z,57.00
2018-02-16T03:08:41.253Z,55.55
2018-02-16T03:09:43.770Z,63.70
2018-02-16T03:10:47.054Z,58.35
2018-02-16T03:11:50.345Z,56.95
2018-02-16T03:12:53.814Z,58.40
2018-02-16T03:13:56.345Z,54.55
2018-02-16T03:14:58.861Z,59.20
2018-02-16T03:16:02.150Z,59.53
2018-02-16T03:17:05.438Z,57.65
2018-02-16T03:18:08.763Z,86.68
2018-02-16T03:19:11.285Z,80.82
2018-02-16T03:20:14.568Z,63.90
2018-02-16T03:21:17.864Z,75.65
2018-02-16T03:22:20.385Z,69.45
2018-02-16T03:23:22.937Z,63.13
2018-02-16T03:24:25.488Z,67.18
2018-02-16T03:25:28.012Z,68.70
2018-02-16T03:26:31.338Z,60.78
2018-02-16T03:27:33.864Z,71.20
2018-02-16T03:28:37.153Z,65.78
2018-02-16T03:29:40.470Z,61.30
2018-02-16T03:30:42.991Z,62.88
2018-02-16T03:31:46.272Z,71.50
2018-02-16T03:32:48.793Z,71.75
2018-02-16T03:33:51.308Z,66.10
2018-02-16T03:34:54.622Z,79.22
2018-02-16T03:35:57.169Z,83.70
2018-02-16T03:37:00.489Z,75.18
2018-02-16T03:38:03.005Z,76.35
2018-02-16T03:39:06.288Z,75.87
2018-02-16T03:40:08.850Z,87.40
2018-02-16T03:41:11.364Z,82.28
2018-02-16T03:42:13.922Z,85.85
2018-02-16T03:43:16.441Z,68.72
2018-02-16T03:44:18.956Z,88.40
2018-02-16T03:45:21.494Z,79.78
2018-02-16T03:46:24.812Z,88.93
2018-02-16T03:47:27.374Z,89.62
2018-02-16T03:48:29.893Z,76.85
2018-02-16T03:49:32.408Z,72.78
2018-02-16T03:50:34.922Z,83.62
2018-02-16T03:51:37.432Z,87.25
2018-02-16T03:52:39.978Z,77.37
2018-02-16T03:53:43.260Z,67.72
2018-02-16T03:54:46.551Z,74.65
2018-02-16T03:55:49.840Z,62.62
2018-02-16T03:56:52.390Z,82.68
2018-02-16T03:57:55.706Z,70.47
2018-02-16T03:58:58.221Z,83.53
2018-02-16T04:00:00.737Z,72.47
2018-02-16T04:01:03.249Z,71.62
2018-02-16T04:02:05.801Z,81.18
2018-02-16T04:03:08.320Z,65.57
2018-02-16T04:04:10.833Z,65.55
2018-02-16T04:05:13.357Z,65.60
2018-02-16T04:06:15.874Z,80.68
2018-02-16T04:07:18.432Z,78.40
2018-02-16T04:08:20.950Z,74.35
2018-02-16T04:09:23.472Z,71.80
2018-02-16T04:10:26.033Z,68.75
2018-02-16T04:11:28.548Z,66.40
2018-02-16T04:12:31.078Z,70.57
2018-02-16T04:13:33.609Z,64.47
2018-02-16T04:14:36.128Z,67.05
2018-02-16T04:15:39.450Z,63.63
2018-02-16T04:16:41.968Z,63.58
2018-02-16T04:17:44.496Z,60.70
2018-02-16T04:18:47.059Z,60.63
2018-02-16T04:19:49.585Z,58.85
2018-02-16T04:20:52.921Z,55.80
2018-02-16T04:21:55.439Z,66.50
2018-02-16T04:22:57.965Z,58.47
2018-02-16T04:24:00.524Z,61.40
2018-02-16T04:25:03.075Z,61.28
2018-02-16T04:26:05.595Z,61.85
2018-02-16T04:27:08.880Z,71.75
2018-02-16T04:28:12.161Z,58.92
2018-02-16T04:29:15.489Z,56.40
2018-02-16T04:30:18.047Z,63.75
2018-02-16T04:31:20.568Z,62.53
2018-02-16T04:32:23.085Z,66.35
2018-02-16T04:33:25.605Z,59.63
2018-02-16T04:34:28.897Z,53.22
2018-02-16T04:35:32.225Z,56.72
2018-02-16T04:36:34.745Z,60.72
2018-02-16T04:37:38.033Z,61.95
2018-02-16T04:38:41.318Z,65.07
2018-02-16T04:39:44.601Z,66.90
2018-02-16T04:40:47.155Z,68.05
2018-02-16T04:41:50.437Z,70.70
2018-02-16T04:42:53.776Z,67.55
2018-02-16T04:43:56.333Z,64.37
2018-02-16T04:44:58.853Z,62.30
2018-02-16T04:46:01.366Z,63.80
2018-02-16T04:47:03.888Z,61.37
2018-02-16T04:48:07.179Z,62.95
2018-02-16T04:49:10.492Z,62.38
2018-02-16T04:50:13.017Z,61.33
2018-02-16T04:51:15.540Z,70.57
2018-02-16T04:52:18.093Z,61.90
2018-02-16T04:53:20.614Z,68.20
2018-02-16T04:54:23.906Z,67.00
2018-02-16T04:55:27.198Z,66.32
2018-02-16T04:56:30.515Z,60.45
2018-02-16T04:57:33.033Z,74.10
2018-02-16T04:58:35.557Z,64.50
2018-02-16T04:59:38.113Z,83.87
2018-02-16T05:00:40.626Z,62.28
2018-02-16T05:01:43.196Z,64.65
2018-02-16T05:02:45.713Z,62.83
2018-02-16T05:03:48.237Z,68.40
2018-02-16T05:04:51.525Z,71.75
2018-02-16T05:05:54.818Z,75.10
2018-02-16T05:06:58.363Z,65.75
2018-02-16T05:08:00.881Z,68.80
2018-02-16T05:09:03.396Z,65.80
2018-02-16T05:10:05.916Z,68.62
2018-02-16T05:11:08.435Z,64.70
2018-02-16T05:12:10.980Z,71.87
2018-02-16T05:13:13.500Z,69.15
2018-02-16T05:14:16.048Z,71.50
2018-02-16T05:15:19.413Z,63.28
2018-02-16T05:16:21.931Z,68.62
2018-02-16T05:17:24.498Z,55.83
2018-02-16T05:18:27.021Z,61.15
2018-02-16T05:19:29.585Z,58.40
2018-02-16T05:20:32.104Z,62.65
2018-02-16T05:21:34.620Z,58.65
2018-02-16T05:22:37.136Z,61.20
2018-02-16T05:23:39.653Z,64.53
2018-02-16T05:24:42.213Z,56.22
2018-02-16T05:25:44.733Z,60.22
2018-02-16T05:26:47.253Z,63.45
2018-02-16T05:27:49.768Z,71.70
2018-02-16T05:28:52.284Z,61.83
2018-02-16T05:29:54.835Z,62.70
2018-02-16T05:30:57.403Z,65.78
2018-02-16T05:31:59.925Z,66.43
2018-02-16T05:33:02.476Z,73.18
2018-02-16T05:34:05.003Z,60.63
2018-02-16T05:35:07.524Z,61.05
2018-02-16T05:36:10.045Z,67.35
2018-02-16T05:37:12.568Z,68.80
2018-02-16T05:38:15.140Z,61.97
2018-02-16T05:39:17.657Z,71.95
2018-02-16T05:40:20.940Z,67.35
2018-02-16T05:41:24.234Z,70.93
2018-02-16T05:42:27.512Z,78.57
2018-02-16T05:43:30.824Z,73.80
2018-02-16T05:44:33.340Z,70.87
2018-02-16T05:45:35.865Z,71.07
2018-02-16T05:46:38.381Z,65.28
2018-02-16T05:47:40.933Z,75.00
2018-02-16T05:48:43.493Z,66.28
2018-02-16T05:49:46.014Z,69.50
2018-02-16T05:50:48.539Z,68.05
2018-02-16T05:51:51.063Z,68.93
2018-02-16T05:52:53.593Z,70.45
2018-02-16T05:53:57.045Z,62.75
2018-02-16T05:54:59.562Z,66.28
2018-02-16T05:56:02.128Z,57.95
2018-02-16T05:57:04.666Z,60.63
2018-02-16T05:58:07.198Z,58.70
2018-02-16T05:59:09.717Z,64.40
2018-02-16T06:00:13.000Z,56.22
2018-02-16T06:01:16.320Z,54.97
2018-02-16T06:02:18.842Z,57.47
2018-02-16T06:03:22.134Z,65.53
2018-02-16T06:04:24.661Z,63.42
2018-02-16T06:05:27.184Z,55.90
2018-02-16T06:06:29.752Z,62.35
2018-02-16T06:07:32.274Z,62.30
2018-02-16T06:08:34.802Z,63.25
2018-02-16T06:09:37.316Z,62.42
2018-02-16T06:10:40.616Z,64.43
2018-02-16T06:11:43.173Z,59.75
2018-02-16T06:12:46.461Z,59.72
2018-02-16T06:13:49.776Z,57.88
2018-02-16T06:14:52.316Z,65.68
2018-02-16T06:15:54.841Z,65.55
2018-02-16T06:16:57.381Z,65.68
2018-02-16T06:17:59.986Z,61.47
2018-02-16T06:19:02.645Z,66.55
2018-02-16T06:20:05.169Z,57.90
2018-02-16T06:21:07.687Z,60.80
2018-02-16T06:22:10.252Z,77.70
2018-02-16T06:23:12.777Z,61.60
2018-02-16T06:24:15.304Z,61.83
2018-02-16T06:25:18.600Z,65.60
2018-02-16T06:26:21.125Z,58.38
2018-02-16T06:27:23.712Z,63.50
2018-02-16T06:28:26.995Z,67.90
2018-02-16T06:29:29.518Z,64.15
2018-02-16T06:30:32.042Z,65.87
2018-02-16T06:31:35.329Z,57.17
2018-02-16T06:32:38.650Z,61.75
2018-02-16T06:33:41.173Z,61.60
2018-02-16T06:34:44.488Z,62.80
2018-02-16T06:35:47.008Z,66.37
2018-02-16T06:36:49.530Z,65.20
2018-02-16T06:37:52.053Z,67.43
2018-02-16T06:38:55.337Z,58.30
2018-02-16T06:39:58.656Z,53.67
2018-02-16T06:41:01.198Z,64.90
2018-02-16T06:42:03.750Z,62.78
2018-02-16T06:43:07.029Z,65.70
2018-02-16T06:44:10.324Z,62.97
2018-02-16T06:45:13.641Z,63.55
2018-02-16T06:46:16.198Z,62.08
2018-02-16T06:47:18.716Z,59.50
2018-02-16T06:48:21.241Z,63.03
2018-02-16T06:49:23.760Z,61.65
2018-02-16T06:50:27.088Z,67.28
2018-02-16T06:51:29.608Z,64.70
2018-02-16T06:52:32.141Z,57.22
2018-02-16T06:53:34.659Z,60.70
2018-02-16T06:55:47.612Z,57.72
2018-02-16T06:56:50.132Z,60.80
2018-02-16T06:57:53.412Z,60.80
2018-02-16T06:58:56.697Z,65.18
2018-02-16T06:59:59.985Z,56.50
2018-02-16T07:01:02.554Z,59.63
2018-02-16T07:02:05.883Z,56.42
2018-02-16T07:03:08.402Z,64.32
2018-02-16T07:04:11.684Z,60.05
2018-02-16T07:05:14.999Z,52.83
2018-02-16T07:06:17.518Z,61.08
2018-02-16T07:07:20.141Z,54.75
2018-02-16T07:08:22.702Z,61.53
2018-02-16T07:09:25.257Z,57.95
2018-02-16T07:10:27.792Z,53.72
2018-02-16T07:11:30.306Z,57.20
2018-02-16T07:12:32.825Z,52.22
2018-02-16T07:13:36.153Z,54.35
2018-02-16T07:14:38.720Z,45.70
2018-02-16T07:15:41.257Z,64.60
2018-02-16T07:16:44.541Z,53.92
2018-02-16T07:17:47.826Z,54.50
2018-02-16T07:18:51.106Z,54.53
2018-02-16T07:19:53.676Z,54.38
2018-02-16T07:20:56.960Z,60.65
2018-02-16T07:22:00.245Z,55.95
2018-02-16T07:23:03.588Z,54.40
2018-02-16T07:24:06.111Z,53.85
2018-02-16T07:25:08.667Z,56.90
2018-02-16T07:26:11.189Z,54.80
2018-02-16T07:27:13.709Z,57.53
2018-02-16T07:28:16.233Z,54.60
2018-02-16T07:29:18.812Z,58.55
2018-02-16T07:30:22.107Z,45.47
2018-02-16T07:31:25.402Z,53.60
2018-02-16T07:32:27.922Z,53.20
2018-02-16T07:33:30.438Z,49.20
2018-02-16T07:34:32.993Z,48.13
2018-02-16T07:35:35.522Z,45.40
2018-02-16T07:36:38.085Z,47.25
2018-02-16T07:37:40.600Z,50.78
2018-02-16T07:38:43.117Z,45.58
2018-02-16T07:39:45.632Z,48.87
2018-02-16T07:40:48.157Z,45.97
2018-02-16T07:41:50.804Z,39.75
2018-02-16T07:42:53.326Z,48.38
2018-02-16T07:43:55.844Z,38.80
2018-02-16T07:44:58.374Z,39.13
2018-02-16T07:46:00.895Z,39.95
2018-02-16T07:47:04.223Z,39.95
2018-02-16T07:48:06.744Z,37.75
2018-02-16T07:49:09.309Z,34.95
2018-02-16T07:50:11.834Z,36.63
2018-02-16T07:51:14.352Z,36.80
2018-02-16T07:52:17.637Z,33.90
2018-02-16T07:53:20.925Z,38.40
2018-02-16T07:54:24.241Z,43.50
2018-02-16T07:55:26.765Z,40.97
2018-02-16T07:56:29.313Z,31.65
2018-02-16T07:57:31.869Z,33.85
2018-02-16T07:58:34.381Z,33.13
2018-02-16T07:59:36.905Z,41.10
2018-02-16T08:00:39.460Z,35.80
2018-02-16T08:01:41.974Z,34.50
2018-02-16T08:02:45.258Z,45.47
2018-02-16T08:03:48.545Z,31.75
2018-02-16T08:04:51.833Z,42.00
2018-02-16T08:05:54.394Z,37.97
2018-02-16T08:06:57.676Z,34.20
2018-02-16T08:08:00.957Z,40.72
2018-02-16T08:09:04.277Z,38.58
2018-02-16T08:10:06.831Z,32.60
2018-02-16T08:11:09.418Z,35.17
2018-02-16T08:12:11.936Z,37.95
2018-02-16T08:13:15.258Z,35.38
2018-02-16T08:14:17.815Z,33.28
2018-02-16T08:15:20.337Z,31.00
2018-02-16T08:16:22.864Z,41.33
2018-02-16T08:17:25.387Z,33.65
2018-02-16T08:18:28.669Z,37.70
2018-02-16T08:19:31.993Z,35.53
2018-02-16T08:20:34.506Z,32.83
2018-02-16T08:21:37.033Z,30.60
2018-02-16T08:22:39.551Z,35.65
2018-02-16T08:23:42.842Z,37.35
2018-02-16T08:24:46.169Z,32.20
2018-02-16T08:25:48.690Z,34.08
2018-02-16T08:26:51.987Z,33.83
2018-02-16T08:27:54.512Z,29.23
2018-02-16T08:28:57.034Z,37.83
2018-02-16T08:29:59.597Z,35.10
2018-02-16T08:31:02.127Z,41.53
2018-02-16T08:32:05.424Z,33.05
2018-02-16T08:33:08.722Z,34.10
2018-02-16T08:34:11.250Z,33.55
2018-02-16T08:35:13.809Z,34.25
2018-02-16T08:36:16.332Z,36.17
2018-02-16T08:37:18.852Z,35.20
2018-02-16T08:38:21.410Z,33.47
2018-02-16T08:39:23.929Z,37.38
2018-02-16T08:40:26.449Z,38.05
2018-02-16T08:41:29.016Z,33.60
2018-02-16T08:42:31.550Z,39.92
2018-02-16T08:43:34.113Z,33.47
2018-02-16T08:44:36.633Z,37.45
2018-02-16T08:45:39.189Z,41.78
2018-02-16T08:46:41.709Z,39.47
2018-02-16T08:47:44.221Z,29.20
2018-02-16T08:48:47.538Z,33.67
2018-02-16T08:49:50.063Z,37.28
2018-02-16T08:50:52.586Z,32.03
2018-02-16T08:51:55.107Z,38.92
2018-02-16T08:52:58.423Z,35.60
2018-02-16T08:54:00.953Z,33.78
2018-02-16T08:55:03.471Z,34.85
2018-02-16T08:56:05.994Z,30.50
2018-02-16T08:57:09.292Z,35.10
2018-02-16T08:58:11.846Z,32.67
2018-02-16T08:59:15.177Z,40.22
2018-02-16T09:00:17.689Z,36.28
2018-02-16T09:01:20.971Z,29.45
2018-02-16T09:02:24.262Z,36.83
2018-02-16T09:03:27.552Z,33.72
2018-02-16T09:04:30.873Z,33.10
2018-02-16T09:05:33.397Z,36.05
2018-02-16T09:06:36.684Z,36.00
2018-02-16T09:07:39.973Z,30.88
2018-02-16T09:08:43.262Z,37.10
2018-02-16T09:09:45.817Z,29.85
2018-02-16T09:10:49.105Z,40.70
2018-02-16T09:11:52.384Z,42.38
2018-02-16T09:12:55.700Z,39.22
2018-02-16T09:13:58.222Z,37.60
2018-02-16T09:15:01.564Z,39.92
2018-02-16T09:16:04.125Z,44.25
2018-02-16T09:17:06.635Z,44.00
2018-02-16T09:18:09.158Z,43.33
2018-02-16T09:19:14.460Z,30.90
2018-02-16T09:20:16.976Z,39.10
2018-02-16T09:21:20.287Z,32.90
2018-02-16T09:22:23.585Z,33.05
2018-02-16T09:23:26.869Z,36.20
2018-02-16T09:24:29.393Z,28.38
2018-02-16T09:25:32.141Z,34.05
2018-02-16T09:26:34.665Z,30.48
2018-02-16T09:27:37.944Z,31.08
2018-02-16T09:28:41.223Z,33.20
2018-02-16T09:29:44.541Z,27.87
2018-02-16T09:30:47.053Z,34.10
2018-02-16T09:31:49.588Z,30.35
2018-02-16T09:32:52.114Z,28.27
2018-02-16T09:33:55.397Z,35.00
2018-02-16T09:34:58.721Z,30.25
2018-02-16T09:36:01.283Z,33.55
2018-02-16T09:37:03.811Z,30.58
2018-02-16T09:38:07.104Z,33.85
2018-02-16T09:39:15.654Z,51.28
2018-02-16T09:40:18.216Z,64.70
2018-02-16T09:41:20.744Z,34.95
2018-02-16T09:42:24.025Z,34.55
2018-02-16T09:43:27.304Z,34.65
2018-02-16T09:44:30.596Z,33.25
2018-02-16T09:45:33.914Z,36.83
2018-02-16T09:46:36.430Z,29.65
2018-02-16T09:47:39.713Z,35.70
2018-02-16T09:48:43.048Z,33.28
2018-02-16T09:49:45.564Z,37.63
2018-02-16T09:50:48.848Z,36.03
2018-02-16T09:51:52.132Z,28.52
2018-02-16T09:52:55.411Z,34.25
2018-02-16T09:53:57.956Z,31.27
2018-02-16T09:55:00.481Z,33.75
2018-02-16T09:56:03.193Z,40.53
2018-02-16T09:57:05.720Z,41.30
2018-02-16T09:58:08.264Z,32.22
2018-02-16T09:59:11.673Z,37.85
2018-02-16T10:00:14.193Z,32.90
2018-02-16T10:01:17.505Z,32.65
2018-02-16T10:02:20.780Z,33.45
2018-02-16T10:03:24.070Z,35.97
2018-02-16T10:04:26.628Z,30.52
2018-02-16T10:05:29.913Z,27.15
2018-02-16T10:06:33.205Z,30.35
2018-02-16T10:07:35.756Z,24.63
2018-02-16T10:08:39.072Z,26.45
2018-02-16T10:09:41.594Z,30.50
2018-02-16T10:10:44.113Z,32.08
2018-02-16T10:11:46.634Z,37.13
2018-02-16T10:12:50.002Z,36.05
2018-02-16T10:13:52.497Z,36.05
2018-02-16T10:14:55.792Z,34.17
2018-02-16T10:15:58.317Z,36.00
2018-02-16T10:17:00.854Z,30.70
2018-02-16T10:18:03.425Z,26.25
2018-02-16T10:19:05.950Z,35.90
2018-02-16T10:20:09.246Z,26.75
2018-02-16T10:21:11.871Z,34.60
2018-02-16T10:22:14.397Z,29.52
2018-02-16T10:23:17.057Z,37.88
2018-02-16T10:24:19.581Z,22.77
2018-02-16T10:25:22.101Z,31.40
2018-02-16T10:26:24.671Z,24.63
2018-02-16T10:27:27.193Z,26.92
2018-02-16T10:28:30.517Z,28.00
2018-02-16T10:29:33.041Z,34.30
2018-02-16T10:30:36.329Z,25.42
2018-02-16T10:31:39.619Z,32.97
2018-02-16T10:32:42.904Z,24.05
2018-02-16T10:33:45.487Z,27.55
2018-02-16T10:34:48.009Z,23.77
2018-02-16T10:35:50.538Z,28.90
2018-02-16T10:36:53.060Z,29.42
2018-02-16T10:37:56.340Z,25.42
2018-02-16T10:38:59.662Z,21.25
2018-02-16T10:40:02.177Z,19.23
2018-02-16T10:41:04.700Z,28.12
2018-02-16T10:42:07.228Z,25.80
2018-02-16T10:43:10.512Z,22.00
2018-02-16T10:44:13.833Z,31.00
2018-02-16T10:45:16.349Z,24.63
2018-02-16T10:46:18.874Z,33.75
2018-02-16T10:47:22.213Z,27.08
2018-02-16T10:48:25.510Z,33.85
2018-02-16T10:49:28.069Z,23.38
2018-02-16T10:50:30.601Z,30.62
2018-02-16T10:51:33.912Z,22.98
2018-02-16T10:52:37.200Z,30.00
2018-02-16T10:53:40.481Z,26.20
2018-02-16T10:54:43.793Z,28.85
2018-02-16T10:55:46.313Z,27.27
2018-02-16T10:56:48.845Z,26.05
2018-02-16T10:57:51.356Z,30.77
2018-02-16T10:58:54.650Z,25.17
2018-02-16T10:59:57.976Z,28.02
2018-02-16T11:01:06.189Z,28.50
2018-02-16T11:02:14.333Z,23.65
2018-02-16T11:03:23.329Z,25.27
2018-02-16T11:04:31.427Z,22.77
2018-02-16T11:05:40.371Z,26.92
2018-02-16T11:06:48.887Z,22.98
2018-02-16T11:07:51.405Z,35.90
2018-02-16T11:08:59.593Z,27.30
2018-02-16T11:10:02.162Z,27.75
2018-02-16T11:11:04.696Z,25.08
2018-02-16T11:12:07.210Z,19.83
2018-02-16T11:13:10.500Z,27.20
2018-02-16T11:14:13.817Z,30.37
2018-02-16T11:15:17.099Z,31.48
2018-02-16T11:16:19.630Z,31.10
2018-02-16T11:17:22.153Z,25.67
2018-02-16T11:18:24.696Z,26.25
2018-02-16T11:19:27.256Z,23.52
2018-02-16T11:20:29.781Z,28.92
2018-02-16T11:21:32.301Z,28.42
2018-02-16T11:22:34.828Z,22.23
2018-02-16T11:23:38.123Z,19.60
2018-02-16T11:24:41.452Z,26.33
2018-02-16T11:25:43.980Z,23.83
2018-02-16T11:26:47.273Z,22.40
2018-02-16T11:27:49.802Z,21.42
2018-02-16T11:28:52.341Z,23.92
2018-02-16T11:29:54.902Z,20.85
2018-02-16T11:30:57.427Z,21.92
2018-02-16T11:32:00.709Z,18.73
2018-02-16T11:33:04.038Z,16.12
2018-02-16T11:34:06.548Z,21.17
2018-02-16T11:35:09.960Z,22.75
2018-02-16T11:36:12.480Z,21.90
2018-02-16T11:37:15.003Z,29.95
2018-02-16T11:38:17.525Z,15.60
2018-02-16T11:39:20.048Z,24.58
2018-02-16T11:40:22.674Z,23.40
2018-02-16T11:41:25.179Z,23.33
2018-02-16T11:42:27.690Z,20.05
2018-02-16T11:43:30.980Z,25.77
2018-02-16T11:44:34.264Z,21.20
2018-02-16T11:45:37.543Z,16.90
2018-02-16T11:46:40.873Z,31.30
2018-02-16T11:47:43.386Z,28.30
2018-02-16T11:48:45.904Z,22.58
2018-02-16T11:49:48.421Z,18.27
2018-02-16T11:50:50.933Z,13.30
2018-02-16T11:51:53.492Z,19.20
2018-02-16T11:52:56.013Z,22.23
2018-02-16T11:53:58.523Z,14.07
2018-02-16T11:55:01.049Z,19.62
2018-02-16T11:56:03.596Z,25.62
2018-02-16T11:57:06.137Z,18.23
2018-02-16T11:58:08.652Z,21.75
2018-02-16T11:59:11.932Z,22.17
2018-02-16T12:00:14.486Z,15.25
2018-02-16T12:01:17.045Z,25.48
2018-02-16T12:02:19.567Z,23.25
2018-02-16T12:03:22.150Z,14.32
2018-02-16T12:04:24.659Z,20.62
2018-02-16T12:05:27.183Z,23.48
2018-02-16T12:06:29.740Z,19.20
2018-02-16T12:07:32.267Z,28.87
2018-02-16T12:08:35.566Z,16.83
2018-02-16T12:09:38.860Z,11.18
2018-02-16T12:10:41.425Z,19.23
2018-02-16T12:11:43.949Z,18.40
2018-02-16T12:12:46.474Z,16.73
2018-02-16T12:13:49.031Z,14.85
2018-02-16T12:14:51.562Z,10.07
2018-02-16T12:15:54.889Z,13.85
2018-02-16T12:16:57.411Z,21.08
2018-02-16T12:17:59.977Z,24.02
2018-02-16T12:19:03.273Z,17.35
2018-02-16T12:20:06.560Z,26.23
2018-02-16T12:21:09.845Z,12.07
2018-02-16T12:22:13.124Z,13.60
2018-02-16T12:23:16.447Z,18.50
2018-02-16T12:24:18.973Z,13.73
2018-02-16T12:25:22.335Z,19.17
2018-02-16T12:26:24.858Z,14.50
2018-02-16T12:27:27.427Z,21.73
2018-02-16T12:28:29.952Z,22.58
2018-02-16T12:29:33.240Z,21.40
2018-02-16T12:30:36.529Z,16.48
2018-02-16T12:31:39.819Z,16.37
2018-02-16T12:32:43.153Z,16.80
2018-02-16T12:33:45.669Z,18.70
2018-02-16T12:34:48.196Z,19.67
2018-02-16T12:35:50.738Z,23.40
2018-02-16T12:36:53.268Z,13.52
2018-02-16T12:37:56.581Z,15.32
2018-02-16T12:38:59.101Z,16.23
2018-02-16T12:40:02.390Z,24.58
2018-02-16T12:41:05.676Z,15.52
2018-02-16T12:42:09.005Z,16.23
2018-02-16T12:43:11.526Z,18.73
2018-02-16T12:44:14.822Z,21.23
2018-02-16T12:45:17.341Z,15.70
2018-02-16T12:46:19.874Z,13.55
2018-02-16T12:47:22.440Z,18.85
2018-02-16T12:48:24.957Z,15.20
2018-02-16T12:49:27.472Z,15.95
2018-02-16T12:50:30.007Z,18.83
2018-02-16T12:51:33.297Z,15.18
2018-02-16T12:52:36.057Z,9.88
2018-02-16T12:53:39.336Z,16.77
2018-02-16T12:54:42.653Z,13.23
2018-02-16T12:55:45.179Z,18.08
2018-02-16T12:56:47.702Z,16.80
2018-02-16T12:57:50.237Z,18.73
2018-02-16T12:58:52.761Z,24.02
2018-02-16T12:59:55.332Z,14.95
2018-02-16T13:00:57.857Z,25.27
2018-02-16T13:02:00.392Z,24.17
2018-02-16T13:03:03.729Z,21.60
2018-02-16T13:04:06.253Z,14.15
2018-02-16T13:05:08.783Z,12.35
2018-02-16T13:06:11.301Z,14.15
2018-02-16T13:07:13.828Z,14.30
2018-02-16T13:08:16.372Z,10.55
2018-02-16T13:09:18.889Z,25.40
2018-02-16T13:10:21.415Z,9.90
2018-02-16T13:11:23.933Z,10.30
2018-02-16T13:12:26.458Z,19.23
2018-02-16T13:13:29.781Z,11.15
2018-02-16T13:14:32.293Z,9.10
2018-02-16T13:15:34.808Z,15.25
2018-02-16T13:16:37.322Z,13.48
2018-02-16T13:17:39.852Z,11.05
2018-02-16T13:18:42.420Z,26.55
2018-02-16T13:19:45.021Z,8.98
2018-02-16T13:20:47.545Z,10.15
2018-02-16T13:21:50.064Z,17.02
2018-02-16T13:22:52.587Z,15.25
2018-02-16T13:23:55.112Z,16.08
2018-02-16T13:24:58.431Z,10.23
2018-02-16T13:26:00.977Z,8.55
2018-02-16T13:27:04.253Z,11.38
2018-02-16T13:28:07.536Z,12.20
2018-02-16T13:29:10.819Z,8.55
2018-02-16T13:30:17.995Z,12.65